Time;durP1;ratioP1;P1;durP2;ratioP2;P2;SDS_P1;SDS_P2;PMS_P1;PMS_P2;Temp;Humidity;BMP_temperature;BMP_pressure;BME280_temperature;BME280_humidity;BME280_pressure;Samples;Min_cycle;Max_cycle;Signal;HPM_P1;HPM_P2
2022/11/13 00:00:17;;;;;;;5.55;3.80;;;12.50;67.40;;;;;;5038097;28;20037;-67
2022/11/13 00:02:43;;;;;;;6.45;4.40;;;12.50;67.30;;;;;;5042249;28;20277;-69
2022/11/13 00:05:09;;;;;;;6.68;4.60;;;12.60;67.00;;;;;;5036335;28;20029;-67
2022/11/13 00:07:34;;;;;;;6.65;4.43;;;12.60;66.70;;;;;;5041423;28;20029;-67
2022/11/13 00:10:00;;;;;;;6.03;4.05;;;12.60;66.80;;;;;;5040464;28;20029;-66
2022/11/13 00:12:25;;;;;;;8.35;5.28;;;12.70;66.70;;;;;;5037070;28;20055;-68
2022/11/13 00:14:51;;;;;;;8.27;4.57;;;12.70;66.50;;;;;;5041992;28;20021;-67
2022/11/13 00:17:16;;;;;;;6.85;4.10;;;12.70;66.50;;;;;;5035210;28;20017;-67
2022/11/13 00:19:42;;;;;;;6.10;3.78;;;12.70;66.50;;;;;;5039832;28;20550;-68
2022/11/13 00:22:07;;;;;;;6.43;3.70;;;12.80;66.40;;;;;;5034709;28;20036;-68
2022/11/13 00:24:33;;;;;;;5.57;3.95;;;12.80;66.40;;;;;;5039667;28;20021;-67
2022/11/13 00:26:59;;;;;;;5.95;4.05;;;12.80;66.30;;;;;;5038532;28;20048;-69
2022/11/13 00:29:24;;;;;;;5.50;3.85;;;12.80;65.80;;;;;;5035447;28;20504;-68
2022/11/13 00:31:50;;;;;;;5.50;3.80;;;12.80;65.20;;;;;;5035838;28;20024;-69
2022/11/13 00:34:15;;;;;;;5.05;3.50;;;12.80;65.10;;;;;;5033322;28;20396;-67
2022/11/13 00:36:41;;;;;;;6.30;3.83;;;12.80;65.10;;;;;;5035664;28;20022;-68
2022/11/13 00:39:07;;;;;;;5.63;3.75;;;12.90;64.40;;;;;;5037217;28;20037;-68
2022/11/13 00:41:33;;;;;;;5.65;3.50;;;12.90;63.90;;;;;;5038111;28;20580;-68
2022/11/13 00:43:58;;;;;;;5.45;4.00;;;12.90;63.60;;;;;;5035325;28;20075;-68
2022/11/13 00:46:24;;;;;;;6.65;4.70;;;12.90;63.30;;;;;;5035011;28;20037;-68
2022/11/13 00:48:49;;;;;;;5.93;4.00;;;12.90;62.70;;;;;;5037205;28;20021;-67
2022/11/13 00:51:15;;;;;;;6.55;4.22;;;13.00;62.80;;;;;;5031767;28;20036;-68
2022/11/13 00:53:41;;;;;;;5.68;4.30;;;13.00;62.30;;;;;;5038252;28;20029;-69
2022/11/13 00:56:06;;;;;;;5.50;4.05;;;13.00;62.20;;;;;;5034800;28;20064;-68
2022/11/13 00:58:32;;;;;;;5.65;3.97;;;13.00;62.00;;;;;;5033562;28;20056;-68
2022/11/13 01:01:05;;;;;;;6.40;4.35;;;13.10;62.10;;;;;;5038887;28;20369;-68
2022/11/13 01:03:30;;;;;;;6.53;3.80;;;13.00;61.90;;;;;;5038082;28;20429;-68
2022/11/13 01:05:56;;;;;;;6.35;3.97;;;13.10;62.00;;;;;;5040140;28;20029;-68
2022/11/13 01:08:21;;;;;;;7.65;4.28;;;13.00;61.80;;;;;;5036625;28;20024;-68
2022/11/13 01:10:48;;;;;;;5.85;4.15;;;13.00;61.80;;;;;;5036185;28;20037;-67
2022/11/13 01:13:14;;;;;;;7.03;4.50;;;13.00;61.70;;;;;;5036048;28;20025;-67
2022/11/13 01:15:44;;;;;;;6.50;4.30;;;13.00;61.80;;;;;;5036623;28;20035;-68
2022/11/13 01:18:10;;;;;;;7.82;4.90;;;13.00;61.20;;;;;;5032125;28;20029;-67
2022/11/13 01:20:36;;;;;;;6.60;4.15;;;13.00;60.80;;;;;;5035024;28;20132;-68
2022/11/13 01:23:02;;;;;;;7.35;4.80;;;13.00;60.50;;;;;;5038225;28;20133;-68
2022/11/13 01:25:29;;;;;;;12.43;7.43;;;13.10;60.30;;;;;;5036077;28;20446;-69
2022/11/13 01:27:55;;;;;;;6.75;4.60;;;13.10;60.30;;;;;;5041213;28;20021;-67
2022/11/13 01:30:21;;;;;;;5.60;3.80;;;13.00;59.80;;;;;;5038485;28;20029;-67
2022/11/13 01:32:46;;;;;;;5.88;3.67;;;13.10;59.80;;;;;;5032290;28;20009;-68
2022/11/13 01:35:12;;;;;;;5.63;3.65;;;13.10;59.50;;;;;;5038296;28;20029;-68
2022/11/13 01:37:38;;;;;;;5.88;3.92;;;13.10;59.50;;;;;;5036343;28;20029;-68
2022/11/13 01:40:04;;;;;;;5.25;3.60;;;13.10;59.50;;;;;;5038009;28;20037;-69
2022/11/13 01:42:32;;;;;;;7.07;4.30;;;13.00;59.40;;;;;;5039867;28;20025;-68
2022/11/13 01:44:59;;;;;;;6.72;4.43;;;13.00;59.20;;;;;;5040683;28;20384;-68
2022/11/13 01:47:25;;;;;;;5.63;3.97;;;13.00;58.90;;;;;;5037855;28;20087;-68
2022/11/13 01:49:56;;;;;;;5.97;3.92;;;13.00;58.80;;;;;;5041188;28;20454;-67
2022/11/13 01:52:36;;;;;;;5.35;3.47;;;13.00;58.80;;;;;;5042920;28;20029;-68
2022/11/13 01:55:11;;;;;;;5.97;3.88;;;13.00;59.10;;;;;;5036427;28;20377;-67
2022/11/13 01:57:37;;;;;;;5.72;4.05;;;13.00;58.70;;;;;;5045560;28;20113;-68
2022/11/13 02:00:08;;;;;;;6.45;4.35;;;13.00;58.50;;;;;;5043702;28;20029;-68
2022/11/13 02:02:33;;;;;;;6.85;4.43;;;13.00;58.50;;;;;;5038463;28;20029;-68
2022/11/13 02:04:59;;;;;;;5.57;4.03;;;12.90;58.30;;;;;;5043886;28;20585;-69
2022/11/13 02:07:25;;;;;;;5.30;3.97;;;12.90;58.50;;;;;;5042637;28;20020;-69
2022/11/13 02:09:53;;;;;;;5.55;4.05;;;13.00;58.50;;;;;;5035273;28;20057;-70
2022/11/13 02:12:31;;;;;;;6.45;4.03;;;12.90;57.80;;;;;;5036838;28;20017;-69
2022/11/13 02:14:59;;;;;;;6.45;4.38;;;13.00;57.90;;;;;;5038978;28;20550;-70
2022/11/13 02:17:44;;;;;;;5.10;3.60;;;12.90;57.70;;;;;;5040570;28;20620;-70
2022/11/13 02:20:12;;;;;;;8.60;4.57;;;13.00;57.80;;;;;;5041656;28;20050;-69
2022/11/13 02:23:00;;;;;;;7.40;4.70;;;12.90;57.50;;;;;;5041181;28;20487;-69
2022/11/13 02:25:28;;;;;;;6.97;4.20;;;12.90;57.00;;;;;;5041343;28;20039;-68
2022/11/13 02:27:54;;;;;;;5.97;4.03;;;13.00;56.60;;;;;;5039450;28;20018;-68
2022/11/13 02:30:28;;;;;;;5.57;3.20;;;13.00;56.00;;;;;;5040078;28;20467;-69
2022/11/13 02:32:56;;;;;;;4.28;3.00;;;13.10;55.10;;;;;;5043453;28;20064;-68
2022/11/13 02:35:28;;;;;;;6.07;3.25;;;13.10;54.50;;;;;;5039103;28;20057;-68
2022/11/13 02:37:55;;;;;;;5.50;3.28;;;13.20;54.00;;;;;;5038447;28;20636;-69
2022/11/13 02:40:20;;;;;;;5.28;3.47;;;13.20;54.30;;;;;;5042194;28;20048;-69
2022/11/13 02:42:46;;;;;;;5.72;4.00;;;13.20;54.00;;;;;;5036263;28;20037;-69
2022/11/13 02:45:11;;;;;;;5.22;3.70;;;13.20;54.10;;;;;;5041192;28;20041;-68
2022/11/13 02:47:37;;;;;;;5.00;3.60;;;13.20;54.00;;;;;;5042473;28;20020;-68
2022/11/13 02:50:03;;;;;;;5.13;3.88;;;13.20;54.40;;;;;;5044385;28;20364;-68
2022/11/13 02:52:30;;;;;;;6.07;3.80;;;13.10;54.60;;;;;;5040957;28;20487;-68
2022/11/13 02:54:55;;;;;;;5.93;4.13;;;13.10;54.90;;;;;;5041290;28;20060;-68
2022/11/13 02:57:21;;;;;;;6.30;4.53;;;13.00;55.10;;;;;;5039626;28;20463;-68
2022/11/13 02:59:46;;;;;;;5.97;4.40;;;12.90;55.40;;;;;;5036071;28;20388;-68
2022/11/13 03:02:12;;;;;;;6.13;4.70;;;12.80;55.60;;;;;;5040032;28;20395;-68
2022/11/13 03:04:37;;;;;;;6.05;4.43;;;12.80;55.70;;;;;;5035535;28;20040;-69
2022/11/13 03:07:03;;;;;;;7.15;5.13;;;12.70;55.50;;;;;;5035908;28;20100;-69
2022/11/13 03:09:29;;;;;;;6.65;4.50;;;12.70;55.60;;;;;;5034814;28;20432;-69
2022/11/13 03:11:54;;;;;;;6.05;4.63;;;12.70;56.00;;;;;;5042416;28;20128;-68
2022/11/13 03:14:20;;;;;;;7.65;5.20;;;12.60;56.30;;;;;;5038357;28;20029;-69
2022/11/13 03:16:46;;;;;;;7.03;4.97;;;12.50;56.50;;;;;;5037735;28;20037;-69
2022/11/13 03:19:11;;;;;;;6.90;4.97;;;12.40;56.60;;;;;;5042666;28;20411;-69
2022/11/13 03:21:37;;;;;;;6.85;4.90;;;12.40;56.70;;;;;;5043930;28;20064;-69
2022/11/13 03:24:02;;;;;;;6.20;4.85;;;12.40;56.70;;;;;;5035800;28;20456;-69
2022/11/13 03:26:28;;;;;;;6.40;5.18;;;12.30;56.60;;;;;;5036927;28;20415;-69
2022/11/13 03:28:54;;;;;;;6.28;4.60;;;12.30;56.90;;;;;;5035563;28;20558;-69
2022/11/13 03:31:20;;;;;;;5.80;4.68;;;12.30;57.10;;;;;;5040942;28;20423;-69
2022/11/13 03:33:46;;;;;;;8.68;5.60;;;12.30;57.00;;;;;;5037461;28;20037;-69
2022/11/13 03:36:12;;;;;;;7.13;5.20;;;12.20;57.20;;;;;;5036358;28;20087;-69
2022/11/13 03:38:38;;;;;;;7.53;5.13;;;12.20;57.30;;;;;;5036588;28;20022;-69
2022/11/13 03:41:04;;;;;;;8.30;5.30;;;12.10;57.50;;;;;;5040010;28;20048;-70
2022/11/13 03:43:29;;;;;;;6.55;5.75;;;12.10;57.70;;;;;;5038444;28;20041;-70
2022/11/13 03:45:55;;;;;;;8.45;5.75;;;12.00;57.80;;;;;;5039782;28;20567;-69
2022/11/13 03:48:21;;;;;;;6.90;5.40;;;12.00;57.90;;;;;;5036546;28;20496;-69
2022/11/13 03:50:50;;;;;;;7.25;5.82;;;12.00;58.20;;;;;;5038569;28;20488;-69
2022/11/13 03:53:16;;;;;;;7.53;5.45;;;11.90;58.20;;;;;;5043365;28;20029;-69
2022/11/13 03:55:42;;;;;;;7.25;5.35;;;11.90;58.50;;;;;;5037368;28;20029;-69
2022/11/13 03:58:08;;;;;;;7.90;6.10;;;11.80;58.60;;;;;;5034585;28;20107;-68
2022/11/13 04:00:35;;;;;;;7.88;6.55;;;11.80;58.80;;;;;;5035282;28;20105;-68
2022/11/13 04:03:00;;;;;;;8.63;5.70;;;11.70;58.90;;;;;;5032691;28;20037;-67
2022/11/13 04:05:26;;;;;;;7.60;6.13;;;11.70;59.00;;;;;;5036434;28;20056;-68
2022/11/13 04:07:52;;;;;;;7.55;5.97;;;11.70;59.10;;;;;;5033777;28;20048;-68
2022/11/13 04:10:17;;;;;;;8.57;5.97;;;11.60;59.10;;;;;;5033765;28;20188;-68
2022/11/13 04:12:43;;;;;;;7.20;5.57;;;11.60;59.10;;;;;;5034191;28;20021;-68
2022/11/13 04:15:09;;;;;;;7.30;5.47;;;11.60;59.00;;;;;;5035796;28;20033;-67
2022/11/13 04:17:34;;;;;;;6.30;4.97;;;11.60;58.60;;;;;;5038457;28;20033;-68
2022/11/13 04:20:00;;;;;;;7.38;5.47;;;11.70;58.60;;;;;;5043091;28;20707;-69
2022/11/13 04:22:25;;;;;;;6.30;5.13;;;11.70;58.40;;;;;;5041257;28;20068;-69
2022/11/13 04:24:51;;;;;;;8.55;6.15;;;11.70;58.50;;;;;;5039508;28;20029;-69
2022/11/13 04:27:17;;;;;;;9.43;6.32;;;11.70;58.80;;;;;;5036156;28;20025;-68
2022/11/13 04:29:42;;;;;;;8.05;6.38;;;11.60;59.20;;;;;;5033202;28;20484;-69
2022/11/13 04:32:08;;;;;;;9.20;7.00;;;11.50;59.50;;;;;;5040232;28;20029;-69
2022/11/13 04:34:33;;;;;;;8.35;6.50;;;11.40;59.80;;;;;;5043522;28;20035;-68
2022/11/13 04:36:59;;;;;;;8.15;6.00;;;11.40;59.90;;;;;;5038468;28;20025;-69
2022/11/13 04:39:24;;;;;;;9.25;6.93;;;11.40;60.00;;;;;;5042048;28;20029;-69
2022/11/13 04:44:34;;;;;;;7.78;5.90;;;11.30;60.40;;;;;;5038594;28;20043;-68
2022/11/13 04:47:00;;;;;;;8.18;6.18;;;11.30;60.50;;;;;;5036128;28;20034;-67
2022/11/13 04:49:25;;;;;;;5.32;4.55;;;11.30;60.60;;;;;;5046279;28;20017;-69
2022/11/13 04:51:51;;;;;;;6.18;4.60;;;11.30;60.80;;;;;;5036919;28;20036;-69
2022/11/13 04:54:16;;;;;;;6.13;5.13;;;11.40;60.80;;;;;;5037473;28;20035;-68
2022/11/13 04:56:42;;;;;;;5.82;4.50;;;11.40;60.70;;;;;;5037289;28;20108;-68
2022/11/13 04:59:08;;;;;;;5.80;5.00;;;11.40;60.50;;;;;;5038769;28;20100;-68
2022/11/13 05:01:35;;;;;;;7.63;5.68;;;11.40;60.30;;;;;;5040321;28;20040;-68
2022/11/13 05:04:01;;;;;;;7.70;5.32;;;11.30;60.30;;;;;;5031304;28;20476;-68
2022/11/13 05:06:26;;;;;;;6.55;5.07;;;11.30;60.20;;;;;;5035859;28;20104;-68
2022/11/13 05:08:52;;;;;;;5.75;5.13;;;11.30;60.10;;;;;;5036319;28;20036;-68
2022/11/13 05:11:17;;;;;;;6.93;5.18;;;11.40;59.70;;;;;;5033576;28;20543;-68
2022/11/13 05:13:43;;;;;;;5.78;4.68;;;11.40;59.40;;;;;;5035794;28;20087;-67
2022/11/13 05:16:10;;;;;;;6.85;5.07;;;11.40;59.20;;;;;;5033969;28;20709;-67
2022/11/13 05:18:37;;;;;;;5.97;4.85;;;11.40;58.70;;;;;;5035288;28;20063;-68
2022/11/13 05:21:05;;;;;;;6.60;5.13;;;11.40;58.60;;;;;;5037218;28;20511;-68
2022/11/13 05:23:31;;;;;;;5.78;4.82;;;11.50;58.30;;;;;;5038069;28;20051;-68
2022/11/13 05:26:10;;;;;;;7.68;6.00;;;11.50;57.20;;;;;;5040938;28;20498;-69
2022/11/13 05:28:37;;;;;;;14.18;9.90;;;11.60;57.30;;;;;;5040117;28;20063;-69
2022/11/13 05:31:14;;;;;;;7.65;6.10;;;11.60;56.90;;;;;;5040004;28;20022;-69
2022/11/13 05:33:41;;;;;;;5.90;5.00;;;11.60;56.90;;;;;;5039286;28;20146;-70
2022/11/13 05:36:11;;;;;;;5.90;4.43;;;11.60;56.60;;;;;;5040368;28;20451;-70
2022/11/13 05:38:37;;;;;;;6.18;4.85;;;11.60;56.60;;;;;;5040187;28;20025;-69
2022/11/13 05:41:09;;;;;;;5.57;4.35;;;11.60;56.10;;;;;;5041044;28;20044;-69
2022/11/13 05:43:36;;;;;;;6.13;4.70;;;11.60;56.20;;;;;;5042140;28;20033;-69
2022/11/13 05:46:11;;;;;;;6.43;5.10;;;11.60;56.30;;;;;;5039290;28;20287;-70
2022/11/13 05:48:37;;;;;;;6.50;4.85;;;11.70;56.10;;;;;;5041919;28;20036;-69
2022/11/13 05:51:05;;;;;;;6.43;4.78;;;11.60;56.30;;;;;;5043187;28;20356;-69
2022/11/13 05:53:32;;;;;;;6.03;4.47;;;11.60;56.40;;;;;;5039755;28;20124;-69
2022/11/13 05:56:03;;;;;;;6.30;4.70;;;11.60;56.70;;;;;;5039672;28;20025;-69
2022/11/13 05:58:30;;;;;;;7.72;4.93;;;11.50;56.80;;;;;;5038669;28;20497;-69
2022/11/13 06:01:14;;;;;;;6.53;4.82;;;11.50;56.90;;;;;;5040210;28;20025;-69
2022/11/13 06:03:40;;;;;;;6.20;4.90;;;11.40;57.00;;;;;;5042581;28;20062;-69
2022/11/13 06:06:08;;;;;;;6.32;5.07;;;11.40;57.20;;;;;;5038928;28;20021;-69
2022/11/13 06:08:33;;;;;;;6.00;4.68;;;11.40;57.20;;;;;;5040011;28;20576;-69
2022/11/13 06:11:00;;;;;;;6.55;4.90;;;11.40;57.30;;;;;;5040121;28;20033;-69
2022/11/13 06:13:26;;;;;;;6.13;4.68;;;11.40;56.90;;;;;;5042755;28;20072;-69
2022/11/13 06:15:52;;;;;;;6.28;4.40;;;11.40;56.80;;;;;;5039617;28;20025;-69
2022/11/13 06:18:22;;;;;;;5.32;4.40;;;11.40;56.80;;;;;;5041559;28;20025;-70
2022/11/13 06:20:48;;;;;;;6.35;4.75;;;11.40;56.90;;;;;;5045656;28;20033;-69
2022/11/13 06:23:13;;;;;;;6.70;4.68;;;11.40;56.80;;;;;;5041695;28;20107;-67
2022/11/13 06:25:39;;;;;;;6.75;4.90;;;11.40;56.60;;;;;;5038118;28;20025;-68
2022/11/13 06:28:04;;;;;;;5.93;4.72;;;11.30;56.50;;;;;;5043590;28;20022;-66
2022/11/13 06:30:30;;;;;;;7.03;4.57;;;11.30;56.60;;;;;;5044807;28;20029;-69
2022/11/13 06:32:55;;;;;;;5.90;4.55;;;11.30;56.50;;;;;;5041439;28;20029;-69
2022/11/13 06:35:21;;;;;;;6.22;4.85;;;11.30;56.70;;;;;;5039710;28;20032;-67
2022/11/13 06:37:46;;;;;;;5.95;4.45;;;11.30;56.70;;;;;;5042997;28;20392;-68
2022/11/13 06:40:12;;;;;;;5.60;4.10;;;11.20;56.70;;;;;;5043261;28;20637;-68
2022/11/13 06:42:38;;;;;;;5.47;4.28;;;11.20;56.60;;;;;;5037655;28;20531;-67
2022/11/13 06:45:04;;;;;;;6.72;4.28;;;11.20;56.50;;;;;;5041325;28;20051;-68
2022/11/13 06:47:30;;;;;;;6.53;4.22;;;11.20;56.50;;;;;;5042896;28;20021;-68
2022/11/13 06:49:55;;;;;;;6.38;4.70;;;11.20;56.50;;;;;;5037897;28;20075;-69
2022/11/13 06:52:21;;;;;;;6.60;4.05;;;11.20;56.20;;;;;;5041168;28;20025;-70
2022/11/13 06:54:46;;;;;;;5.88;4.00;;;11.20;56.30;;;;;;5040702;28;20085;-69
2022/11/13 06:57:12;;;;;;;5.10;4.20;;;11.20;56.40;;;;;;5039169;28;20033;-69
2022/11/13 06:59:38;;;;;;;6.28;4.10;;;11.20;56.60;;;;;;5040418;28;20475;-70
2022/11/13 07:02:04;;;;;;;7.28;4.72;;;11.10;56.70;;;;;;5040523;28;20299;-70
2022/11/13 07:04:29;;;;;;;5.85;4.53;;;11.10;56.80;;;;;;5036065;28;20110;-69
2022/11/13 07:06:55;;;;;;;6.50;4.85;;;11.10;57.10;;;;;;5037568;28;20526;-69
2022/11/13 07:09:20;;;;;;;7.63;4.80;;;11.00;57.20;;;;;;5041835;28;20068;-68
2022/11/13 07:11:46;;;;;;;6.43;4.65;;;11.00;57.40;;;;;;5037599;28;20029;-69
2022/11/13 07:14:12;;;;;;;6.43;4.85;;;11.00;57.80;;;;;;5037043;28;20021;-70
2022/11/13 07:16:38;;;;;;;6.22;5.22;;;11.00;58.10;;;;;;5037556;28;20033;-68
2022/11/13 07:19:04;;;;;;;7.60;5.82;;;11.00;58.40;;;;;;5042564;28;20028;-69
2022/11/13 07:21:30;;;;;;;6.20;5.35;;;10.90;58.60;;;;;;5035923;28;20013;-70
2022/11/13 07:23:56;;;;;;;7.35;5.65;;;10.90;58.80;;;;;;5042063;28;20100;-70
2022/11/13 07:26:22;;;;;;;6.65;5.45;;;10.80;59.00;;;;;;5038453;28;20128;-69
2022/11/13 07:28:48;;;;;;;7.97;6.20;;;10.80;59.20;;;;;;5034940;28;20033;-68
2022/11/13 07:31:15;;;;;;;7.70;5.70;;;10.90;59.30;;;;;;5039757;28;20112;-70
2022/11/13 07:33:42;;;;;;;6.10;4.97;;;10.90;59.40;;;;;;5040289;28;20083;-69
2022/11/13 07:36:08;;;;;;;5.57;4.53;;;10.90;59.50;;;;;;5045910;28;20193;-69
2022/11/13 07:38:34;;;;;;;7.00;5.10;;;10.90;59.50;;;;;;5043776;28;20031;-70
2022/11/13 07:41:00;;;;;;;6.10;4.57;;;10.90;59.60;;;;;;5042647;28;20025;-70
2022/11/13 07:43:26;;;;;;;6.78;5.22;;;11.00;59.60;;;;;;5038681;28;20115;-69
2022/11/13 07:45:55;;;;;;;7.72;5.65;;;11.00;60.10;;;;;;5043738;28;20032;-69
2022/11/13 07:48:22;;;;;;;8.75;6.32;;;11.00;59.30;;;;;;5041294;28;20525;-69
2022/11/13 07:50:48;;;;;;;8.23;6.20;;;11.00;59.40;;;;;;5046795;28;20029;-69
2022/11/13 07:53:14;;;;;;;6.32;5.25;;;11.00;59.40;;;;;;5037513;28;20117;-67
2022/11/13 07:55:39;;;;;;;9.15;6.20;;;11.10;59.50;;;;;;5042643;28;20099;-67
2022/11/13 07:58:05;;;;;;;7.78;6.18;;;11.10;59.50;;;;;;5038076;28;20445;-69
2022/11/13 08:00:33;;;;;;;7.07;5.55;;;11.10;59.50;;;;;;5042655;28;20115;-68
2022/11/13 08:03:08;;;;;;;7.53;6.15;;;11.10;59.60;;;;;;5047065;28;20020;-68
2022/11/13 08:05:34;;;;;;;7.53;5.38;;;11.10;59.60;;;;;;5041225;28;20021;-68
2022/11/13 08:08:00;;;;;;;8.02;5.63;;;11.20;59.70;;;;;;5048042;28;20109;-68
2022/11/13 08:10:26;;;;;;;8.60;5.97;;;11.20;59.50;;;;;;5046686;28;20028;-68
2022/11/13 08:13:00;;;;;;;7.20;5.72;;;11.20;59.50;;;;;;5044606;28;20029;-68
2022/11/13 08:15:26;;;;;;;19.00;14.05;;;11.30;59.40;;;;;;5047766;28;20017;-69
2022/11/13 08:17:56;;;;;;;10.55;7.97;;;11.30;59.40;;;;;;5046096;28;20511;-68
2022/11/13 08:20:23;;;;;;;8.90;7.00;;;11.40;59.10;;;;;;5038408;28;20032;-68
2022/11/13 08:22:49;;;;;;;6.80;5.50;;;11.50;59.10;;;;;;5048361;28;20021;-69
2022/11/13 08:25:15;;;;;;;7.90;6.60;;;11.50;59.10;;;;;;5038235;28;20025;-69
2022/11/13 08:27:40;;;;;;;7.82;6.15;;;11.60;59.20;;;;;;5038699;28;20041;-68
2022/11/13 08:30:07;;;;;;;10.13;6.90;;;11.60;59.20;;;;;;5045961;28;20033;-67
2022/11/13 08:32:32;;;;;;;7.20;5.93;;;11.60;59.20;;;;;;5049109;28;20013;-68
2022/11/13 08:34:58;;;;;;;9.20;7.40;;;11.60;59.40;;;;;;5046071;28;20083;-69
2022/11/13 08:37:23;;;;;;;9.07;6.97;;;11.70;59.50;;;;;;5047214;28;20017;-68
2022/11/13 08:39:49;;;;;;;8.00;6.53;;;11.60;59.50;;;;;;5042638;28;20159;-68
2022/11/13 08:42:14;;;;;;;8.77;7.10;;;11.60;59.50;;;;;;5047607;28;20025;-68
2022/11/13 08:44:40;;;;;;;9.95;6.68;;;11.70;59.50;;;;;;5045367;28;20033;-69
2022/11/13 08:47:06;;;;;;;8.27;6.47;;;11.70;59.40;;;;;;5046355;28;20025;-68
2022/11/13 08:49:31;;;;;;;9.68;7.35;;;11.80;59.30;;;;;;5045521;28;20032;-69
2022/11/13 08:51:57;;;;;;;9.25;6.68;;;11.80;58.60;;;;;;5039550;28;20499;-69
2022/11/13 08:54:22;;;;;;;10.48;7.20;;;11.90;58.30;;;;;;5040393;28;20024;-68
2022/11/13 08:56:48;;;;;;;10.70;7.20;;;12.00;58.00;;;;;;5039616;28;20025;-68
2022/11/13 08:59:14;;;;;;;10.90;7.05;;;12.10;57.40;;;;;;5048597;28;20020;-68
2022/11/13 09:01:40;;;;;;;11.80;7.20;;;12.20;57.00;;;;;;5046939;28;20025;-68
2022/11/13 09:04:05;;;;;;;7.90;5.70;;;12.30;56.60;;;;;;5035197;28;20036;-67
2022/11/13 09:06:32;;;;;;;8.43;6.53;;;12.40;56.40;;;;;;5040039;28;20549;-68
2022/11/13 09:08:58;;;;;;;9.65;7.05;;;12.50;55.80;;;;;;5046620;28;20036;-67
2022/11/13 09:11:26;;;;;;;9.80;6.80;;;12.50;54.90;;;;;;5047481;28;20357;-68
2022/11/13 09:13:52;;;;;;;8.95;6.45;;;12.60;55.20;;;;;;5046619;28;20475;-68
2022/11/13 09:16:18;;;;;;;7.55;5.95;;;12.70;55.30;;;;;;5039183;28;20041;-68
2022/11/13 09:18:43;;;;;;;10.07;6.07;;;12.70;54.90;;;;;;5048872;28;20028;-68
2022/11/13 09:21:09;;;;;;;7.60;5.43;;;12.80;54.50;;;;;;5041849;28;20021;-68
2022/11/13 09:23:35;;;;;;;5.72;4.97;;;12.90;54.60;;;;;;5046502;28;20052;-68
2022/11/13 09:26:04;;;;;;;7.57;4.95;;;13.00;54.80;;;;;;5044220;28;20488;-68
2022/11/13 09:28:29;;;;;;;7.72;5.30;;;13.00;54.90;;;;;;5049003;28;20467;-68
2022/11/13 09:30:55;;;;;;;6.45;4.85;;;13.10;54.90;;;;;;5045358;28;20029;-67
2022/11/13 09:33:21;;;;;;;7.30;5.03;;;13.10;55.00;;;;;;5045734;28;20072;-67
2022/11/13 09:35:46;;;;;;;7.13;5.03;;;13.20;54.40;;;;;;5047152;28;20906;-68
2022/11/13 09:38:13;;;;;;;7.82;5.50;;;13.20;54.00;;;;;;5043646;28;20049;-69
2022/11/13 09:40:56;;;;;;;7.32;5.70;;;13.20;53.80;;;;;;5043922;28;20033;-67
2022/11/13 09:43:34;;;;;;;6.90;5.13;;;13.30;53.90;;;;;;5040678;28;20034;-69
2022/11/13 09:46:04;;;;;;;8.20;5.90;;;13.30;54.00;;;;;;5029127;28;20029;-68
2022/11/13 09:48:41;;;;;;;7.40;6.00;;;13.40;54.20;;;;;;5039488;28;20017;-68
2022/11/13 09:51:15;;;;;;;8.20;6.03;;;13.40;54.10;;;;;;5041965;28;20017;-69
2022/11/13 09:53:41;;;;;;;8.18;5.20;;;13.40;53.60;;;;;;5046642;28;20476;-69
2022/11/13 09:56:38;;;;;;;7.60;6.55;;;13.50;54.10;;;;;;5042527;28;20021;-68
2022/11/13 09:59:18;;;;;;;8.00;6.70;;;13.40;54.00;;;;;;5041235;28;20037;-69
2022/11/13 10:02:03;;;;;;;7.22;5.95;;;13.40;53.90;;;;;;5038563;28;20434;-68
2022/11/13 10:04:51;;;;;;;9.30;6.80;;;13.40;54.20;;;;;;5046329;28;20377;-69
2022/11/13 10:07:56;;;;;;;7.65;6.00;;;13.40;53.90;;;;;;5042814;28;20021;-67
2022/11/13 10:10:46;;;;;;;6.93;5.22;;;13.40;54.00;;;;;;5043772;28;20095;-68
2022/11/13 10:13:18;;;;;;;6.18;5.03;;;13.40;54.10;;;;;;5046899;28;20040;-68
2022/11/13 10:15:48;;;;;;;6.00;4.85;;;13.50;54.10;;;;;;5050900;28;20021;-69
2022/11/13 10:18:29;;;;;;;7.30;5.38;;;13.60;53.90;;;;;;5050202;28;20037;-69
2022/11/13 10:21:23;;;;;;;6.78;5.43;;;13.70;53.50;;;;;;5049494;28;20036;-69
2022/11/13 10:23:55;;;;;;;7.07;5.10;;;13.70;53.00;;;;;;5045708;28;20063;-69
2022/11/13 10:26:23;;;;;;;7.20;5.30;;;13.80;52.90;;;;;;5049951;28;20222;-68
2022/11/13 10:28:59;;;;;;;6.00;4.57;;;13.80;52.00;;;;;;5046857;28;20891;-69
2022/11/13 10:31:25;;;;;;;6.32;4.47;;;14.00;52.10;;;;;;5050195;28;20021;-69
2022/11/13 10:33:53;;;;;;;8.23;5.28;;;14.10;52.10;;;;;;5048598;28;20151;-70
2022/11/13 10:36:33;;;;;;;6.97;5.30;;;14.10;51.80;;;;;;5050171;28;20475;-69
2022/11/13 10:39:05;;;;;;;6.72;4.75;;;14.20;52.10;;;;;;5048040;28;20076;-69
2022/11/13 10:41:31;;;;;;;7.18;5.18;;;14.30;52.00;;;;;;5050335;28;20032;-69
2022/11/13 10:43:58;;;;;;;5.40;4.43;;;14.30;51.60;;;;;;5048947;28;20025;-69
2022/11/13 10:46:28;;;;;;;7.68;4.70;;;14.30;51.80;;;;;;5047879;28;20055;-68
2022/11/13 10:49:09;;;;;;;6.63;4.78;;;14.30;51.20;;;;;;5046488;28;20009;-69
2022/11/13 10:51:35;;;;;;;6.97;4.88;;;14.40;51.10;;;;;;5047353;28;20028;-68
2022/11/13 10:54:21;;;;;;;5.15;4.00;;;14.40;51.10;;;;;;5046086;28;20017;-69
2022/11/13 10:56:59;;;;;;;5.75;4.25;;;14.50;51.00;;;;;;5048726;28;20063;-68
2022/11/13 10:59:25;;;;;;;5.70;4.00;;;14.60;50.90;;;;;;5047412;28;20131;-68
2022/11/13 11:01:51;;;;;;;5.47;3.67;;;14.80;50.80;;;;;;5046522;28;20487;-69
2022/11/13 11:04:28;;;;;;;5.07;3.85;;;14.90;50.80;;;;;;5047842;28;20025;-69
2022/11/13 11:06:54;;;;;;;6.70;4.20;;;14.90;50.30;;;;;;5045437;28;20021;-69
2022/11/13 11:09:26;;;;;;;5.43;4.18;;;15.00;49.80;;;;;;5043478;28;20028;-69
2022/11/13 11:12:16;;;;;;;5.55;4.03;;;14.90;49.00;;;;;;5044230;28;20025;-68
2022/11/13 11:14:59;;;;;;;5.20;4.00;;;15.00;49.40;;;;;;5045189;28;20492;-68
2022/11/13 11:17:30;;;;;;;4.95;4.30;;;15.00;48.90;;;;;;5045553;28;20112;-70
2022/11/13 11:20:21;;;;;;;5.43;4.07;;;15.00;48.70;;;;;;5047907;28;20790;-69
2022/11/13 11:22:53;;;;;;;4.30;3.60;;;15.10;48.90;;;;;;5047572;28;20053;-69
2022/11/13 11:25:22;;;;;;;5.30;4.38;;;15.10;48.90;;;;;;5045924;28;20034;-68
2022/11/13 11:28:03;;;;;;;5.05;3.50;;;15.20;48.30;;;;;;5047291;28;20479;-68
2022/11/13 11:30:38;;;;;;;5.33;3.93;;;15.20;48.00;;;;;;5048410;28;20469;-68
2022/11/13 11:33:24;;;;;;;4.25;3.17;;;15.30;48.20;;;;;;5048665;28;20116;-67
2022/11/13 11:36:01;;;;;;;4.43;3.60;;;15.30;48.20;;;;;;5048876;28;20557;-68
2022/11/13 11:38:41;;;;;;;4.82;3.80;;;15.40;48.00;;;;;;5049561;28;20115;-67
2022/11/13 11:41:20;;;;;;;5.03;3.92;;;15.50;48.00;;;;;;5048604;28;20478;-66
2022/11/13 11:44:11;;;;;;;5.05;3.90;;;15.60;47.50;;;;;;5048464;28;20045;-67
2022/11/13 11:46:37;;;;;;;5.38;4.32;;;15.90;48.00;;;;;;5039916;28;20052;-67
2022/11/13 11:49:03;;;;;;;5.32;3.60;;;17.70;45.60;;;;;;5049092;28;20032;-67
2022/11/13 11:52:16;;;;;;;18.00;12.40;;;19.40;43.30;;;;;;5045821;28;20521;-67
2022/11/13 11:54:46;;;;;;;19.00;11.60;;;20.80;40.90;;;;;;5047888;28;20463;-67
2022/11/13 11:57:37;;;;;;;10.70;7.43;;;21.40;39.50;;;;;;5046313;28;20021;-67
2022/11/13 12:00:09;;;;;;;11.45;6.07;;;21.20;37.70;;;;;;5044439;28;20036;-66
2022/11/13 12:02:43;;;;;;;;;;;19.70;39.00;;;;;;5043332;28;20013;-66
2022/11/13 12:05:19;;;;;;;23.98;13.75;;;18.70;41.50;;;;;;5043267;28;19919;-67
2022/11/13 12:08:10;;;;;;;24.50;19.77;;;18.10;43.50;;;;;;5043919;28;20021;-68
2022/11/13 12:10:57;;;;;;;5.87;4.97;;;17.70;44.10;;;;;;5043662;28;20021;-67
2022/11/13 12:13:30;;;;;;;5.25;3.90;;;18.70;43.80;;;;;;5046289;28;20149;-68
2022/11/13 12:15:59;;;;;;;4.75;3.55;;;20.00;41.80;;;;;;5046543;28;20418;-67
2022/11/13 12:18:40;;;;;;;5.50;4.50;;;20.60;40.10;;;;;;5046175;28;20021;-68
2022/11/13 12:21:18;;;;;;;4.25;3.35;;;20.80;39.60;;;;;;5044926;28;20049;-67
2022/11/13 12:23:46;;;;;;;3.97;3.33;;;21.10;38.70;;;;;;5047991;28;20021;-68
2022/11/13 12:26:38;;;;;;;6.90;5.78;;;21.30;39.20;;;;;;5048465;28;20032;-68
2022/11/13 12:29:23;;;;;;;6.70;4.00;;;21.30;38.80;;;;;;5042176;28;20040;-68
2022/11/13 12:32:23;;;;;;;4.68;3.33;;;21.70;38.70;;;;;;5041211;28;20017;-67
2022/11/13 12:35:06;;;;;;;4.80;3.17;;;21.70;37.90;;;;;;5029321;28;20122;-67
2022/11/13 12:37:39;;;;;;;3.65;2.80;;;22.00;37.60;;;;;;5036092;28;20047;-67
2022/11/13 12:40:30;;;;;;;3.72;2.88;;;22.20;37.60;;;;;;5036507;28;20029;-68
2022/11/13 12:43:23;;;;;;;2.95;2.50;;;22.20;36.30;;;;;;5035664;28;20029;-69
2022/11/13 12:46:05;;;;;;;3.30;2.53;;;22.40;36.80;;;;;;5029676;28;20032;-70
2022/11/13 12:48:42;;;;;;;2.70;2.50;;;22.80;37.00;;;;;;5037778;28;20525;-70
2022/11/13 12:51:17;;;;;;;3.30;2.70;;;22.70;36.10;;;;;;5036687;28;20568;-71
2022/11/13 12:53:51;;;;;;;3.58;2.90;;;22.70;35.60;;;;;;5042247;28;20021;-71
2022/11/13 12:56:23;;;;;;;2.97;2.30;;;22.30;35.60;;;;;;5043338;28;20483;-70
2022/11/13 12:59:17;;;;;;;3.17;2.30;;;22.40;36.50;;;;;;5045717;28;20106;-70